Time;durP1;ratioP1;P1;durP2;ratioP2;P2;SDS_P1;SDS_P2;PMS_P1;PMS_P2;Temp;Humidity;BMP_temperature;BMP_pressure;BME280_temperature;BME280_humidity;BME280_pressure;Samples;Min_cycle;Max_cycle;Signal;HPM_P1;HPM_P2
2023/02/04 00:01:35;;;;;;;;;;;23.20;63.60;;;;;;5025830;28;19955;-71
2023/02/04 00:04:01;;;;;;;;;;;23.30;63.60;;;;;;5025951;28;20003;-65
2023/02/04 00:06:27;;;;;;;;;;;23.50;65.40;;;;;;5025704;28;19912;-60
2023/02/04 00:08:54;;;;;;;;;;;23.80;63.10;;;;;;5025873;28;20363;-62
2023/02/04 00:11:20;;;;;;;;;;;24.10;62.40;;;;;;5025454;28;19913;-62
2023/02/04 00:13:47;;;;;;;;;;;24.10;63.50;;;;;;5023239;28;19913;-69
2023/02/04 00:16:13;;;;;;;;;;;24.40;63.90;;;;;;5026824;28;19920;-64
2023/02/04 00:18:40;;;;;;;;;;;24.70;63.70;;;;;;5008865;28;19913;-70
2023/02/04 00:21:06;;;;;;;;;;;25.00;62.60;;;;;;5028934;28;19913;-67
2023/02/04 00:23:33;;;;;;;;;;;25.30;61.60;;;;;;5024127;28;19913;-63
2023/02/04 00:25:59;;;;;;;;;;;25.30;60.90;;;;;;5025734;28;19919;-68
2023/02/04 00:28:25;;;;;;;;;;;25.30;61.10;;;;;;5026845;28;20003;-72
2023/02/04 00:30:52;;;;;;;;;;;25.20;61.70;;;;;;5024896;28;19920;-73
2023/02/04 00:33:18;;;;;;;;;;;25.40;62.60;;;;;;5008524;28;19944;-69
2023/02/04 00:35:45;;;;;;;;;;;25.70;61.50;;;;;;5024045;28;19920;-70
2023/02/04 00:38:11;;;;;;;;;;;25.60;60.80;;;;;;5025881;28;19913;-72
2023/02/04 00:40:38;;;;;;;;;;;25.40;61.90;;;;;;5028789;28;19913;-64
2023/02/04 00:43:04;;;;;;;;;;;25.70;61.80;;;;;;5024517;28;19913;-63
2023/02/04 00:45:31;;;;;;;;;;;25.90;60.60;;;;;;5029120;28;19909;-63
2023/02/04 00:48:00;;;;;;;;;;;26.20;59.60;;;;;;5022326;28;19971;-70
2023/02/04 00:50:26;;;;;;;;;;;26.20;58.30;;;;;;5024424;28;19913;-63
2023/02/04 00:52:52;;;;;;;;;;;26.00;58.60;;;;;;5025223;28;19975;-70
2023/02/04 00:55:19;;;;;;;;;;;26.00;61.00;;;;;;4673642;28;10000442;-63
2023/02/04 00:57:48;;;;;;;;;;;26.40;60.00;;;;;;5026117;28;20452;-62
2023/02/04 01:00:15;;;;;;;;;;;26.70;58.90;;;;;;5027782;28;20003;-70
2023/02/04 01:02:41;;;;;;;;;;;27.10;59.40;;;;;;5024829;28;19913;-63
2023/02/04 01:05:09;;;;;;;;;;;27.20;58.20;;;;;;5024472;28;20288;-73
2023/02/04 01:07:35;;;;;;;;;;;27.10;58.10;;;;;;5025193;28;20017;-67
2023/02/04 01:10:02;;;;;;;;;;;26.80;57.10;;;;;;5015287;28;19913;-70
2023/02/04 01:12:28;;;;;;;;;;;26.90;59.80;;;;;;5024213;28;19909;-63
2023/02/04 01:14:55;;;;;;;;;;;27.00;56.60;;;;;;5026324;28;20309;-67
2023/02/04 01:17:21;;;;;;;;;;;27.20;57.20;;;;;;5023774;28;19919;-63
2023/02/04 01:19:48;;;;;;;;;;;27.10;56.30;;;;;;5027638;28;19912;-72
2023/02/04 01:22:14;;;;;;;;;;;27.20;55.60;;;;;;5023114;28;20290;-72
2023/02/04 01:24:40;;;;;;;;;;;27.20;56.90;;;;;;5027614;28;20261;-62
2023/02/04 01:27:07;;;;;;;;;;;27.40;55.60;;;;;;5028728;28;19954;-63
2023/02/04 01:29:33;;;;;;;;;;;27.40;57.20;;;;;;5027402;28;19913;-72
2023/02/04 01:32:00;;;;;;;;;;;27.30;56.00;;;;;;5024373;28;19913;-69
2023/02/04 01:34:26;;;;;;;;;;;27.30;56.20;;;;;;5018673;28;19920;-71
2023/02/04 01:36:52;;;;;;;;;;;27.20;56.30;;;;;;5019877;28;20011;-60
2023/02/04 01:39:19;;;;;;;;;;;27.20;55.70;;;;;;5024328;28;19912;-60
2023/02/04 01:41:45;;;;;;;;;;;27.40;57.00;;;;;;5027779;28;20354;-70
2023/02/04 01:44:12;;;;;;;;;;;27.80;55.90;;;;;;5024739;28;20475;-62
2023/02/04 01:46:38;;;;;;;;;;;27.90;55.80;;;;;;5025058;28;20308;-61
2023/02/04 01:49:05;;;;;;;;;;;27.70;55.20;;;;;;5023759;28;20361;-70
2023/02/04 01:51:32;;;;;;;;;;;27.90;54.90;;;;;;5022660;28;19909;-62
2023/02/04 01:53:59;;;;;;;;;;;27.70;54.00;;;;;;5022258;28;20275;-69
2023/02/04 01:56:26;;;;;;;;;;;27.60;53.50;;;;;;5027402;28;19916;-61
2023/02/04 01:58:54;;;;;;;;;;;27.30;54.40;;;;;;5021371;28;20030;-60
2023/02/04 02:01:35;;;;;;;;;;;27.60;54.50;;;;;;5021077;28;20175;-70
2023/02/04 02:04:01;;;;;;;;;;;28.00;55.00;;;;;;5024889;28;20400;-68
2023/02/04 02:06:28;;;;;;;;;;;28.00;54.20;;;;;;5020298;28;19913;-70
2023/02/04 02:08:54;;;;;;;;;;;27.60;54.10;;;;;;5026303;28;19939;-61
2023/02/04 02:11:20;;;;;;;;;;;27.50;53.80;;;;;;5027306;28;19920;-60
2023/02/04 02:13:47;;;;;;;;;;;27.50;54.70;;;;;;5031889;28;19952;-61
2023/02/04 02:16:13;;;;;;;;;;;27.70;54.70;;;;;;5021529;28;19917;-69
2023/02/04 02:18:40;;;;;;;;;;;28.00;53.90;;;;;;5026385;28;20306;-61
2023/02/04 02:21:09;;;;;;;;;;;28.60;54.60;;;;;;5027218;28;19909;-68
2023/02/04 02:23:46;;;;;;;;;;;28.60;53.20;;;;;;5020866;28;19916;-71
2023/02/04 02:26:13;;;;;;;;;;;28.70;52.60;;;;;;5025344;28;20006;-62
2023/02/04 02:28:39;;;;;;;;;;;29.00;53.70;;;;;;5023679;28;19913;-68
2023/02/04 02:31:06;;;;;;;;;;;29.40;54.00;;;;;;5026088;28;20396;-60
2023/02/04 02:33:32;;;;;;;;;;;29.60;53.30;;;;;;5026292;28;20578;-61
2023/02/04 02:35:59;;;;;;;;;;;29.40;53.60;;;;;;5026776;28;19951;-61
2023/02/04 02:38:25;;;;;;;;;;;29.30;52.80;;;;;;5009350;28;19908;-62
2023/02/04 02:40:51;;;;;;;;;;;29.20;52.60;;;;;;5025307;28;19948;-71
2023/02/04 02:43:22;;;;;;;;;;;29.40;51.90;;;;;;5026646;28;19917;-70
2023/02/04 02:45:49;;;;;;;;;;;29.70;52.40;;;;;;5025949;28;20365;-61
2023/02/04 02:48:16;;;;;;;;;;;29.80;52.70;;;;;;5024103;28;19905;-60
2023/02/04 02:50:42;;;;;;;;;;;29.90;52.40;;;;;;5026807;28;20453;-70
2023/02/04 02:53:10;;;;;;;;;;;29.70;52.90;;;;;;5026253;28;19925;-60
2023/02/04 02:55:36;;;;;;;;;;;29.60;51.50;;;;;;5024693;28;19983;-69
2023/02/04 02:58:03;;;;;;;;;;;30.10;52.40;;;;;;5025061;28;19975;-69
2023/02/04 03:00:30;;;;;;;;;;;30.50;52.80;;;;;;5026129;28;19913;-64
2023/02/04 03:02:58;;;;;;;;;;;31.00;53.50;;;;;;5025062;28;19913;-60
2023/02/04 03:05:25;;;;;;;;;;;31.00;51.50;;;;;;5025196;28;19917;-67
2023/02/04 03:07:52;;;;;;;;;;;30.80;51.70;;;;;;5018724;28;19940;-67
2023/02/04 03:10:18;;;;;;;;;;;30.50;51.60;;;;;;4673507;28;10000206;-59
2023/02/04 03:12:45;;;;;;;;;;;30.60;51.00;;;;;;5020027;28;20597;-70
2023/02/04 03:15:13;;;;;;;;;;;30.70;51.30;;;;;;5002636;28;19960;-61
2023/02/04 03:17:39;;;;;;;;;;;31.10;52.00;;;;;;5021845;28;19936;-71
2023/02/04 03:20:06;;;;;;;;;;;30.30;50.30;;;;;;5020472;28;20000;-66
2023/02/04 03:22:33;;;;;;;;;;;30.40;50.30;;;;;;5019296;28;20011;-65
2023/02/04 03:24:59;;;;;;;;;;;30.80;49.90;;;;;;5016746;28;19916;-62
2023/02/04 03:27:26;;;;;;;;;;;30.70;50.30;;;;;;5021701;28;19913;-67
2023/02/04 03:29:52;;;;;;;;;;;30.30;49.20;;;;;;5020231;28;20488;-67
2023/02/04 03:32:19;;;;;;;;;;;30.30;49.80;;;;;;5020963;28;19916;-68
2023/02/04 03:34:45;;;;;;;;;;;30.10;51.00;;;;;;5021911;28;19908;-62
2023/02/04 03:37:11;;;;;;;;;;;30.10;50.00;;;;;;5019317;28;19917;-71
2023/02/04 03:39:39;;;;;;;;;;;30.40;50.30;;;;;;5020676;28;19913;-70
2023/02/04 03:42:05;;;;;;;;;;;30.40;48.60;;;;;;5021221;28;19913;-67
2023/02/04 03:44:31;;;;;;;;;;;30.00;47.90;;;;;;5020516;28;19920;-62
2023/02/04 03:46:58;;;;;;;;;;;30.00;47.20;;;;;;5017628;28;19913;-62
2023/02/04 03:49:27;;;;;;;;;;;30.50;48.10;;;;;;5016119;28;19936;-69
2023/02/04 03:51:53;;;;;;;;;;;30.50;48.10;;;;;;5020843;28;20385;-66
2023/02/04 03:54:19;;;;;;;;;;;30.30;47.10;;;;;;5018164;28;19920;-66
2023/02/04 03:56:46;;;;;;;;;;;29.90;47.10;;;;;;5018224;28;20023;-62
2023/02/04 03:59:12;;;;;;;;;;;29.90;48.80;;;;;;5020837;28;19927;-69
2023/02/04 04:01:38;;;;;;;;;;;30.30;47.80;;;;;;5020355;28;19913;-69
2023/02/04 04:04:05;;;;;;;;;;;30.80;48.00;;;;;;5021510;28;19981;-71
2023/02/04 04:06:31;;;;;;;;;;;30.70;47.20;;;;;;5021490;28;20004;-64
2023/02/04 04:08:58;;;;;;;;;;;30.70;48.00;;;;;;5019949;28;19909;-61
2023/02/04 04:11:24;;;;;;;;;;;30.70;47.70;;;;;;5020760;28;20392;-61
2023/02/04 04:13:50;;;;;;;;;;;30.50;49.10;;;;;;5021024;28;19920;-59
2023/02/04 04:16:17;;;;;;;;;;;30.40;47.80;;;;;;5018636;28;20217;-60
2023/02/04 04:18:43;;;;;;;;;;;30.20;48.60;;;;;;5020895;28;20219;-65
2023/02/04 04:21:10;;;;;;;;;;;30.20;48.00;;;;;;5020813;28;19917;-60
2023/02/04 04:23:36;;;;;;;;;;;30.50;49.80;;;;;;5018273;28;19917;-60
2023/02/04 04:26:02;;;;;;;;;;;30.90;48.70;;;;;;5020867;28;20256;-68
2023/02/04 04:28:29;;;;;;;;;;;30.80;48.50;;;;;;5020072;28;19913;-69
2023/02/04 04:30:55;;;;;;;;;;;30.70;48.60;;;;;;5018175;28;20450;-61
2023/02/04 04:33:21;;;;;;;;;;;31.00;49.80;;;;;;5019789;28;19943;-60
2023/02/04 04:35:48;;;;;;;;;;;31.30;48.90;;;;;;5018667;28;20361;-71
2023/02/04 04:38:14;;;;;;;;;;;31.40;48.30;;;;;;5020483;28;19959;-59
2023/02/04 04:40:40;;;;;;;;;;;31.30;47.90;;;;;;5016715;28;19913;-68
2023/02/04 04:43:07;;;;;;;;;;;31.20;48.50;;;;;;5017262;28;20331;-70
2023/02/04 04:45:33;;;;;;;;;;;31.30;48.30;;;;;;5017957;28;19912;-69
2023/02/04 04:48:00;;;;;;;;;;;31.10;48.90;;;;;;5017891;28;19913;-60
2023/02/04 04:50:26;;;;;;;;;;;31.00;48.90;;;;;;5018999;28;19913;-60
2023/02/04 04:52:52;;;;;;;;;;;31.00;49.20;;;;;;5017056;28;19923;-70
2023/02/04 04:55:19;;;;;;;;;;;31.10;49.10;;;;;;5017121;28;19913;-62
2023/02/04 04:57:45;;;;;;;;;;;31.30;49.30;;;;;;5016889;28;19917;-66
2023/02/04 05:00:15;;;;;;;;;;;31.30;49.70;;;;;;5018156;28;19920;-61
2023/02/04 05:02:42;;;;;;;;;;;31.40;49.50;;;;;;5017798;28;19913;-70
2023/02/04 05:05:09;;;;;;;;;;;31.60;48.60;;;;;;5016960;28;20153;-61
2023/02/04 05:07:35;;;;;;;;;;;31.80;48.20;;;;;;5018329;28;20304;-63
2023/02/04 05:10:02;;;;;;;;;;;31.70;48.00;;;;;;5017778;28;19913;-63
2023/02/04 05:12:28;;;;;;;;;;;31.60;48.90;;;;;;5015132;28;19917;-63
2023/02/04 05:14:54;;;;;;;;;;;31.30;48.80;;;;;;5017783;28;20209;-63
2023/02/04 05:17:21;;;;;;;;;;;31.20;48.00;;;;;;5017041;28;20437;-62
2023/02/04 05:19:47;;;;;;;;;;;30.80;48.40;;;;;;5016098;28;19914;-62
2023/02/04 05:22:13;;;;;;;;;;;30.80;50.00;;;;;;5018490;28;20399;-67
2023/02/04 05:24:40;;;;;;;;;;;31.40;50.20;;;;;;5020018;28;19917;-72
2023/02/04 05:27:06;;;;;;;;;;;31.80;50.70;;;;;;5002296;28;20036;-70
2023/02/04 05:29:33;;;;;;;;;;;31.90;48.50;;;;;;5021164;28;19979;-61
2023/02/04 05:31:59;;;;;;;;;;;31.50;48.00;;;;;;5020071;28;20254;-60
2023/02/04 05:34:25;;;;;;;;;;;31.00;48.70;;;;;;5020906;28;19913;-60
2023/02/04 05:36:52;;;;;;;;;;;30.80;49.00;;;;;;5017641;28;20090;-70
2023/02/04 05:39:18;;;;;;;;;;;30.90;49.40;;;;;;5024074;28;19917;-66
2023/02/04 05:41:44;;;;;;;;;;;31.10;48.40;;;;;;5024371;28;19924;-61
2023/02/04 05:44:11;;;;;;;;;;;31.20;48.10;;;;;;5024613;28;20278;-70
2023/02/04 05:46:38;;;;;;;;;;;31.10;48.40;;;;;;5025222;28;20039;-60
2023/02/04 05:49:05;;;;;;;;;;;30.90;48.20;;;;;;5022954;28;19916;-67
2023/02/04 05:51:31;;;;;;;;;;;30.80;48.90;;;;;;5024848;28;20172;-59
2023/02/04 05:53:57;;;;;;;;;;;30.90;49.00;;;;;;5023812;28;20391;-62
2023/02/04 05:56:24;;;;;;;;;;;31.10;49.30;;;;;;5023419;28;19923;-60
2023/02/04 05:58:50;;;;;;;;;;;31.20;49.20;;;;;;5016920;28;20149;-65
2023/02/04 06:01:17;;;;;;;;;;;30.90;48.60;;;;;;5021245;28;19928;-61
2023/02/04 06:03:43;;;;;;;;;;;31.30;48.80;;;;;;5022887;28;19978;-60
2023/02/04 06:06:12;;;;;;;;;;;31.30;48.00;;;;;;5020073;28;20366;-61
2023/02/04 06:08:42;;;;;;;;;;;31.40;49.20;;;;;;5022305;28;19919;-62
2023/02/04 06:11:08;;;;;;;;;;;31.40;49.70;;;;;;5022995;28;20019;-60
2023/02/04 06:13:34;;;;;;;;;;;31.80;49.50;;;;;;5023770;28;19917;-69
2023/02/04 06:16:01;;;;;;;;;;;31.90;48.30;;;;;;5020062;28;20226;-61
2023/02/04 06:18:27;;;;;;;;;;;32.00;49.10;;;;;;5020951;28;19917;-70
2023/02/04 06:20:53;;;;;;;;;;;31.70;48.80;;;;;;5021054;28;20367;-66
2023/02/04 06:23:20;;;;;;;;;;;31.30;49.80;;;;;;5022375;28;19992;-62
2023/02/04 06:25:49;;;;;;;;;;;31.30;49.40;;;;;;5018376;28;20163;-61
2023/02/04 06:28:15;;;;;;;;;;;31.40;49.60;;;;;;5004011;28;19913;-70
2023/02/04 06:30:43;;;;;;;;;;;30.90;49.00;;;;;;5022616;28;20273;-64
2023/02/04 06:33:09;;;;;;;;;;;30.60;49.60;;;;;;5022032;28;19960;-60
2023/02/04 06:35:36;;;;;;;;;;;30.60;50.40;;;;;;5022509;28;19923;-61
2023/02/04 06:38:02;;;;;;;;;;;30.70;49.80;;;;;;5022234;28;20484;-62
2023/02/04 06:40:28;;;;;;;;;;;30.80;51.40;;;;;;5021375;28;19920;-64
2023/02/04 06:42:55;;;;;;;;;;;31.00;50.50;;;;;;5022254;28;20016;-59
2023/02/04 06:45:21;;;;;;;;;;;31.00;50.10;;;;;;5021967;28;20310;-71
2023/02/04 06:47:47;;;;;;;;;;;30.70;50.00;;;;;;5020588;28;19917;-71
2023/02/04 06:50:17;;;;;;;;;;;30.70;50.80;;;;;;5022345;28;19917;-67
2023/02/04 06:52:45;;;;;;;;;;;31.00;50.70;;;;;;5021642;28;19963;-61
2023/02/04 06:55:12;;;;;;;;;;;30.90;49.80;;;;;;5022559;28;19966;-65
2023/02/04 06:57:38;;;;;;;;;;;31.00;50.60;;;;;;5021727;28;19920;-64
2023/02/04 07:00:06;;;;;;;;;;;31.30;50.60;;;;;;5019757;28;19941;-70
2023/02/04 07:02:32;;;;;;;;;;;31.50;50.80;;;;;;5021524;28;19947;-59
2023/02/04 07:05:00;;;;;;;;;;;31.40;49.70;;;;;;5019910;28;19913;-62
2023/02/04 07:07:26;;;;;;;;;;;30.90;51.40;;;;;;5017451;28;19913;-58
2023/02/04 07:09:53;;;;;;;;;;;31.40;50.70;;;;;;5019968;28;19956;-69
2023/02/04 07:12:19;;;;;;;;;;;31.50;50.30;;;;;;5019844;28;19920;-59
2023/02/04 07:14:45;;;;;;;;;;;31.40;50.80;;;;;;5020872;28;19913;-66
2023/02/04 07:17:12;;;;;;;;;;;31.60;51.50;;;;;;5020827;28;20035;-71
2023/02/04 07:19:38;;;;;;;;;;;31.90;50.60;;;;;;5020675;28;19924;-71
2023/02/04 07:22:05;;;;;;;;;;;31.90;50.40;;;;;;5021015;28;19921;-69
2023/02/04 07:24:31;;;;;;;;;;;32.00;50.40;;;;;;5021310;28;19948;-60
2023/02/04 07:26:57;;;;;;;;;;;31.70;50.30;;;;;;5021015;28;20173;-64
2023/02/04 07:29:24;;;;;;;;;;;31.40;50.50;;;;;;5009990;28;20832;-59
2023/02/04 07:31:53;;;;;;;;;;;31.70;50.50;;;;;;5021750;28;19909;-59
2023/02/04 07:34:20;;;;;;;;;;;31.90;50.40;;;;;;5020739;28;19913;-59
2023/02/04 07:36:46;;;;;;;;;;;31.50;50.10;;;;;;5007237;28;20011;-66
2023/02/04 07:39:13;;;;;;;;;;;31.70;51.10;;;;;;5021184;28;19920;-67
2023/02/04 07:41:39;;;;;;;;;;;31.80;50.10;;;;;;5020961;28;20345;-66
2023/02/04 07:44:06;;;;;;;;;;;31.10;50.60;;;;;;5020943;28;20276;-57
2023/02/04 07:46:32;;;;;;;;;;;30.90;50.00;;;;;;5021136;28;19913;-66
2023/02/04 07:48:58;;;;;;;;;;;30.70;50.70;;;;;;5018275;28;19913;-68
2023/02/04 07:51:25;;;;;;;;;;;31.00;51.40;;;;;;5021647;28;19972;-67
2023/02/04 07:53:51;;;;;;;;;;;31.20;50.70;;;;;;5021319;28;19913;-61
2023/02/04 07:56:17;;;;;;;;;;;31.40;50.20;;;;;;5020874;28;20439;-67
2023/02/04 07:58:44;;;;;;;;;;;31.60;50.80;;;;;;5018789;28;19927;-68
2023/02/04 08:01:10;;;;;;;;;;;32.00;50.80;;;;;;5014337;28;19912;-70
2023/02/04 08:03:37;;;;;;;;;;;32.30;50.30;;;;;;5018573;28;20002;-65
2023/02/04 08:06:03;;;;;;;;;;;32.60;50.50;;;;;;5016820;28;19912;-61
2023/02/04 08:08:29;;;;;;;;;;;32.40;50.20;;;;;;5017501;28;19920;-60
2023/02/04 08:10:56;;;;;;;;;;;32.20;50.80;;;;;;5017398;28;19996;-69
2023/02/04 08:13:22;;;;;;;;;;;32.10;51.00;;;;;;5018929;28;19913;-60
2023/02/04 08:15:51;;;;;;;;;;;31.80;50.30;;;;;;5017847;28;19917;-61
2023/02/04 08:18:17;;;;;;;;;;;31.40;50.40;;;;;;5017791;28;20520;-60
2023/02/04 08:20:43;;;;;;;;;;;31.10;50.30;;;;;;4999811;28;19919;-68
2023/02/04 08:23:10;;;;;;;;;;;30.80;51.20;;;;;;5016426;28;20499;-60
2023/02/04 08:25:36;;;;;;;;;;;30.40;51.00;;;;;;5017063;28;19913;-69
2023/02/04 08:28:03;;;;;;;;;;;30.10;51.50;;;;;;5017312;28;19920;-67
2023/02/04 08:30:30;;;;;;;;;;;30.00;51.60;;;;;;5017822;28;20889;-69
2023/02/04 08:32:56;;;;;;;;;;;29.80;52.10;;;;;;5017098;28;19920;-59
2023/02/04 08:35:22;;;;;;;;;;;29.40;52.40;;;;;;5017536;28;19919;-60
2023/02/04 08:37:49;;;;;;;;;;;28.80;52.90;;;;;;5016090;28;19913;-59
2023/02/04 08:40:15;;;;;;;;;;;28.10;52.80;;;;;;5018975;28;19935;-67
2023/02/04 08:42:41;;;;;;;;;;;27.40;53.50;;;;;;5020755;28;19913;-67
2023/02/04 08:45:08;;;;;;;;;;;26.90;54.60;;;;;;5019776;28;19913;-60
2023/02/04 08:47:34;;;;;;;;;;;26.50;54.90;;;;;;5017636;28;20162;-68
2023/02/04 08:50:01;;;;;;;;;;;26.20;55.40;;;;;;5021225;28;19913;-68
2023/02/04 08:52:27;;;;;;;;;;;26.10;55.40;;;;;;5020322;28;20241;-59
2023/02/04 08:54:54;;;;;;;;;;;25.90;57.70;;;;;;5019043;28;19920;-59
2023/02/04 08:57:20;;;;;;;;;;;25.80;56.10;;;;;;5017740;28;19924;-69
2023/02/04 08:59:46;;;;;;;;;;;25.70;56.50;;;;;;5002564;28;19921;-61
2023/02/04 09:02:13;;;;;;;;;;;25.50;55.80;;;;;;5020314;28;19936;-71
2023/02/04 09:04:39;;;;;;;;;;;25.30;57.10;;;;;;5020499;28;19909;-70
2023/02/04 09:07:05;;;;;;;;;;;25.10;57.10;;;;;;5019981;28;19963;-63
2023/02/04 09:09:32;;;;;;;;;;;25.10;57.80;;;;;;5019460;28;20348;-61
2023/02/04 09:12:00;;;;;;;;;;;24.90;57.90;;;;;;5019048;28;19912;-59
2023/02/04 09:14:26;;;;;;;;;;;24.80;58.20;;;;;;5020405;28;19913;-60
2023/02/04 09:16:53;;;;;;;;;;;24.60;59.10;;;;;;5019663;28;19923;-66
2023/02/04 09:19:24;;;;;;;;;;;24.60;58.30;;;;;;5018327;28;19936;-60
2023/02/04 09:21:53;;;;;;;;;;;24.70;58.90;;;;;;5018992;28;19913;-67
2023/02/04 09:24:22;;;;;;;;;;;24.60;59.20;;;;;;5019263;28;19913;-63
2023/02/04 09:26:49;;;;;;;;;;;24.40;58.80;;;;;;5019774;28;19979;-59
2023/02/04 09:29:15;;;;;;;;;;;24.30;58.70;;;;;;5023247;28;19935;-68
2023/02/04 09:31:41;;;;;;;;;;;24.30;58.90;;;;;;5019099;28;19923;-68
2023/02/04 09:34:08;;;;;;;;;;;24.30;58.20;;;;;;5015566;28;19913;-66
2023/02/04 09:36:36;;;;;;;;;;;24.20;58.80;;;;;;5020025;28;19921;-60
2023/02/04 09:39:08;;;;;;;;;;;24.00;59.00;;;;;;5021260;28;20004;-68
2023/02/04 09:41:34;;;;;;;;;;;23.90;59.60;;;;;;5021081;28;19931;-68
2023/02/04 09:44:01;;;;;;;;;;;23.80;59.80;;;;;;5019753;28;19917;-59
2023/02/04 09:46:28;;;;;;;;;;;23.70;59.60;;;;;;5018298;28;19913;-60
2023/02/04 09:48:54;;;;;;;;;;;23.60;60.40;;;;;;5017796;28;19944;-65
2023/02/04 09:51:32;;;;;;;;;;;23.50;60.40;;;;;;5020407;28;19920;-60
2023/02/04 09:54:08;;;;;;;;;;;23.50;59.80;;;;;;5019995;28;19913;-61
2023/02/04 09:56:34;;;;;;;;;;;23.50;59.70;;;;;;5020896;28;20511;-60
2023/02/04 09:59:05;;;;;;;;;;;23.50;60.80;;;;;;5061951;22;20727;-70
2023/02/04 10:01:32;;;;;;;;;;;23.30;61.00;;;;;;5020510;28;20272;-70
2023/02/04 10:04:00;;;;;;;;;;;23.20;61.20;;;;;;5019793;28;19912;-61
2023/02/04 10:06:27;;;;;;;;;;;23.20;61.20;;;;;;5019429;28;19920;-60
2023/02/04 10:08:53;;;;;;;;;;;23.20;61.00;;;;;;5019488;28;19912;-69
2023/02/04 10:11:21;;;;;;;;;;;23.20;60.90;;;;;;5019609;28;19942;-59
2023/02/04 10:13:52;;;;;;;;;;;23.20;61.40;;;;;;5019008;28;19966;-62
2023/02/04 10:16:30;;;;;;;;;;;23.20;60.70;;;;;;5017664;28;19929;-59
2023/02/04 10:18:57;;;;;;;;;;;23.20;61.10;;;;;;5019821;28;19909;-61
2023/02/04 10:21:27;;;;;;;;;;;23.10;61.80;;;;;;5032700;28;19913;-61
2023/02/04 10:23:54;;;;;;;;;;;23.10;61.80;;;;;;5039379;28;20010;-60
2023/02/04 10:26:21;;;;;;;;;;;23.10;61.80;;;;;;5020591;28;19994;-69
2023/02/04 10:28:51;;;;;;;;;;;22.90;61.90;;;;;;5038299;28;19919;-69
2023/02/04 10:31:31;;;;;;;;;;;22.70;61.60;;;;;;5040100;28;20324;-62
2023/02/04 10:34:13;;;;;;;;;;;22.70;62.90;;;;;;5039351;28;19995;-70
2023/02/04 10:36:41;;;;;;;;;;;22.50;62.80;;;;;;5039030;28;19956;-63
2023/02/04 10:39:18;;;;;;;;;;;22.40;64.20;;;;;;5040069;28;19909;-71
2023/02/04 10:41:45;;;;;;;;;;;22.40;65.30;;;;;;5042446;28;19958;-68
2023/02/04 10:44:13;;;;;;;;;;;22.40;63.90;;;;;;5038719;28;19956;-71
2023/02/04 10:46:39;;;;;;;;;;;22.30;63.80;;;;;;5038036;28;19920;-71
2023/02/04 10:49:26;;;;;;;;;;;22.10;64.10;;;;;;5036798;28;19917;-71
2023/02/04 10:51:52;;;;;;;;;;;22.00;64.10;;;;;;5039958;28;20011;-69
2023/02/04 10:54:30;;;;;;;;;;;21.90;64.40;;;;;;5039183;28;19920;-62
2023/02/04 10:57:06;;;;;;;;;;;21.80;65.20;;;;;;5037233;28;19970;-61
2023/02/04 10:59:32;;;;;;;;;;;21.60;65.60;;;;;;5038542;28;19916;-71
2023/02/04 11:02:01;;;;;;;;;;;21.40;67.10;;;;;;5036913;28;19935;-61
2023/02/04 11:04:27;;;;;;;;;;;21.30;66.50;;;;;;5036202;28;19916;-61
2023/02/04 11:06:54;;;;;;;;;;;21.00;67.10;;;;;;5036766;28;19998;-62
2023/02/04 11:09:20;;;;;;;;;;;20.90;67.60;;;;;;5037423;28;19913;-70
2023/02/04 11:11:48;;;;;;;;;;;20.70;68.50;;;;;;5035845;28;19996;-71
2023/02/04 11:14:40;;;;;;;;;;;20.70;68.90;;;;;;5038644;28;19913;-69
2023/02/04 11:17:07;;;;;;;;;;;20.50;69.20;;;;;;5033606;28;19916;-68
2023/02/04 11:19:36;;;;;;;;;;;20.40;69.40;;;;;;5040295;28;20296;-61
2023/02/04 11:22:21;;;;;;;;;;;20.40;69.40;;;;;;5045324;28;19921;-62
2023/02/04 11:24:47;;;;;;;;;;;20.50;70.10;;;;;;5039408;28;19908;-69
2023/02/04 11:27:36;;;;;;;;;;;20.70;69.60;;;;;;5041849;28;19912;-63
2023/02/04 11:30:07;;;;;;;;;;;20.90;68.80;;;;;;5045303;28;19917;-69
2023/02/04 11:32:36;;;;;;;;;;;21.10;67.30;;;;;;5044050;28;19959;-62
2023/02/04 11:35:12;;;;;;;;;;;21.30;68.90;;;;;;5046403;28;19909;-70
2023/02/04 11:37:39;;;;;;;;;;;21.20;68.30;;;;;;5032962;28;19924;-61
2023/02/04 11:40:24;;;;;;;;;;;21.00;68.90;;;;;;5024522;28;20396;-61
2023/02/04 11:43:01;;;;;;;;;;;20.80;69.00;;;;;;5043244;28;19924;-71
2023/02/04 11:45:37;;;;;;;;;;;20.50;69.40;;;;;;5045097;28;20258;-69
2023/02/04 11:48:11;;;;;;;;;;;20.40;70.50;;;;;;5043758;28;19913;-61
2023/02/04 11:50:37;;;;;;;;;;;20.30;71.00;;;;;;5044601;28;20164;-71
2023/02/04 11:53:04;;;;;;;;;;;20.30;70.70;;;;;;5045981;28;20327;-68
2023/02/04 11:55:34;;;;;;;;;;;20.40;71.50;;;;;;5042080;28;19913;-64
2023/02/04 11:58:00;;;;;;;;;;;20.40;71.30;;;;;;5045124;28;19956;-71
2023/02/04 12:00:31;;;;;;;;;;;20.70;69.70;;;;;;5045339;28;19917;-61
2023/02/04 12:03:10;;;;;;;;;;;21.00;68.60;;;;;;5039289;28;19939;-61
2023/02/04 12:05:41;;;;;;;;;;;21.20;68.70;;;;;;5044211;28;20129;-70
2023/02/04 12:08:24;;;;;;;;;;;21.20;68.20;;;;;;5044113;28;20513;-61
2023/02/04 12:10:59;;;;;;;;;;;21.20;68.50;;;;;;5044097;28;20442;-69
2023/02/04 12:13:26;;;;;;;;;;;21.20;68.90;;;;;;5045126;28;19916;-69
2023/02/04 12:16:03;;;;;;;;;;;21.10;70.10;;;;;;5045200;28;20360;-69
2023/02/04 12:18:30;;;;;;;;;;;21.10;69.50;;;;;;5023314;28;19912;-60
2023/02/04 12:20:57;;;;;;;;;;;21.10;68.50;;;;;;5044389;28;19981;-61
2023/02/04 12:23:24;;;;;;;;;;;21.00;69.70;;;;;;5045163;28;19935;-60
2023/02/04 12:25:50;;;;;;;;;;;20.90;69.70;;;;;;5040825;28;19987;-71
2023/02/04 12:28:16;;;;;;;;;;;20.60;70.20;;;;;;5040465;28;19952;-60
2023/02/04 12:30:43;;;;;;;;;;;20.30;70.70;;;;;;5044362;28;19942;-60
2023/02/04 12:33:10;;;;;;;;;;;20.10;72.00;;;;;;5044004;28;19913;-70
2023/02/04 12:35:36;;;;;;;;;;;20.00;72.00;;;;;;5044484;28;19912;-60
2023/02/04 12:38:03;;;;;;;;;;;19.80;73.00;;;;;;5043126;28;20270;-70
2023/02/04 12:40:29;;;;;;;;;;;19.80;73.50;;;;;;5042553;28;19913;-70
2023/02/04 12:42:56;;;;;;;;;;;19.80;74.00;;;;;;5045939;28;19920;-63
2023/02/04 12:45:22;;;;;;;;;;;19.80;73.50;;;;;;5045016;28;20413;-62
2023/02/04 12:47:49;;;;;;;;;;;19.70;73.70;;;;;;5044968;28;19908;-70
2023/02/04 12:50:21;;;;;;;;;;;19.50;74.80;;;;;;5043723;28;19987;-61
2023/02/04 12:52:48;;;;;;;;;;;19.40;74.50;;;;;;5046722;28;19916;-70
2023/02/04 12:55:15;;;;;;;;;;;19.50;74.00;;;;;;5048591;28;19920;-69
2023/02/04 12:57:41;;;;;;;;;;;19.40;73.50;;;;;;5048664;28;19991;-62
2023/02/04 13:00:08;;;;;;;;;;;19.30;75.00;;;;;;5048343;28;19962;-71
2023/02/04 13:02:34;;;;;;;;;;;19.10;75.10;;;;;;5048639;28;19913;-62
2023/02/04 13:05:01;;;;;;;;;;;19.20;75.40;;;;;;5048728;28;19913;-63
2023/02/04 13:07:27;;;;;;;;;;;19.20;75.40;;;;;;5048738;28;19920;-61
2023/02/04 13:09:53;;;;;;;;;;;19.20;75.70;;;;;;5048450;28;19917;-62
2023/02/04 13:12:20;;;;;;;;;;;19.20;75.40;;;;;;5044494;28;20478;-62
2023/02/04 13:14:46;;;;;;;;;;;19.00;76.30;;;;;;5046695;28;19915;-61
2023/02/04 13:17:12;;;;;;;;;;;18.90;76.80;;;;;;5048860;28;20262;-62
2023/02/04 13:19:39;;;;;;;;;;;19.30;76.50;;;;;;5048629;28;20022;-62
2023/02/04 13:22:05;;;;;;;;;;;19.20;77.10;;;;;;5048797;28;19947;-69
2023/02/04 13:24:34;;;;;;;;;;;19.00;78.40;;;;;;5048038;28;19913;-62
2023/02/04 13:27:00;;;;;;;;;;;18.90;78.40;;;;;;5048578;28;19920;-69
2023/02/04 13:29:27;;;;;;;;;;;18.80;79.00;;;;;;5047974;28;19913;-59
2023/02/04 13:31:53;;;;;;;;;;;18.70;78.00;;;;;;5048289;28;20423;-60
2023/02/04 13:34:22;;;;;;;;;;;18.80;77.80;;;;;;5042279;28;19925;-62
2023/02/04 13:36:48;;;;;;;;;;;18.70;78.50;;;;;;5048391;28;20012;-68
2023/02/04 13:39:15;;;;;;;;;;;18.50;79.00;;;;;;5048391;28;19920;-60
2023/02/04 13:41:41;;;;;;;;;;;18.30;80.10;;;;;;5047361;28;19943;-60
2023/02/04 13:44:08;;;;;;;;;;;18.20;79.90;;;;;;5044787;28;20275;-72
2023/02/04 13:46:34;;;;;;;;;;;18.10;80.60;;;;;;5047823;28;19919;-61
2023/02/04 13:49:00;;;;;;;;;;;18.00;80.70;;;;;;5045709;28;20553;-61
2023/02/04 13:51:27;;;;;;;;;;;18.00;81.90;;;;;;5047892;28;19916;-59
2023/02/04 13:53:53;;;;;;;;;;;18.00;81.80;;;;;;5047419;28;19912;-59
2023/02/04 13:56:22;;;;;;;;;;;18.10;82.10;;;;;;5045511;28;20011;-60
2023/02/04 13:58:48;;;;;;;;;;;18.00;82.50;;;;;;5049979;28;19923;-69
2023/02/04 14:01:14;;;;;;;;;;;17.90;82.20;;;;;;5034388;28;19909;-69
2023/02/04 14:03:45;;;;;;;;;;;17.80;82.50;;;;;;5052033;28;19913;-61
2023/02/04 14:06:14;;;;;;;;;;;17.80;83.00;;;;;;5051521;28;20486;-60
2023/02/04 14:08:40;;;;;;;;;;;17.70;83.20;;;;;;5051194;28;19922;-60
2023/02/04 14:11:07;;;;;;;;;;;17.90;83.60;;;;;;5045520;28;19913;-69
2023/02/04 14:13:33;;;;;;;;;;;17.70;84.90;;;;;;5047315;28;20360;-59
2023/02/04 14:16:00;;;;;;;;;;;17.70;85.20;;;;;;5051746;28;19923;-60
2023/02/04 14:18:26;;;;;;;;;;;17.80;85.50;;;;;;5052007;28;19912;-60